createdAt,value
2023-02-11T00:00:00.179Z,-0.63
2023-02-11T00:10:07.925Z,-0.66
2023-02-11T00:20:15.187Z,-0.56
2023-02-11T00:30:21.706Z,-0.47
2023-02-11T00:40:28.657Z,-0.55
2023-02-11T00:50:35.743Z,-0.62
2023-02-11T01:00:42.918Z,-0.70
2023-02-11T01:10:55.507Z,-0.70
2023-02-11T01:21:02.897Z,-0.60
2023-02-11T01:31:09.958Z,-0.55
2023-02-11T01:41:17.791Z,-0.61
2023-02-11T01:51:29.278Z,-0.68
2023-02-11T02:01:39.270Z,-0.73
2023-02-11T02:11:46.419Z,-0.66
2023-02-11T02:22:00.718Z,-0.61
2023-02-11T02:32:24.807Z,-0.65
2023-02-11T02:42:33.354Z,-0.74
2023-02-11T02:52:44.203Z,-0.83
2023-02-11T03:02:58.920Z,-0.82
2023-02-11T03:13:08.902Z,-0.74
2023-02-11T03:23:17.137Z,-0.82
2023-02-11T03:33:30.449Z,-0.96
2023-02-11T03:43:42.695Z,-1.07
2023-02-11T03:53:52.274Z,-1.07
2023-02-11T04:03:57.776Z,-0.96
2023-02-11T04:14:05.532Z,-0.90
2023-02-11T04:24:12.610Z,-0.89
2023-02-11T04:34:19.828Z,-0.93
2023-02-11T04:44:27.017Z,-0.98
2023-02-11T04:54:33.978Z,-0.97
2023-02-11T05:04:41.688Z,-0.87
2023-02-11T05:14:48.990Z,-0.89
2023-02-11T05:24:56.276Z,-1.03
2023-02-11T05:35:02.552Z,-1.16
2023-02-11T05:45:07.319Z,-1.21
2023-02-11T05:55:14.528Z,-1.17
2023-02-11T06:05:21.732Z,-1.14
2023-02-11T06:15:29.705Z,-1.28
2023-02-11T06:25:36.736Z,-1.37
2023-02-11T06:35:43.780Z,-1.32
2023-02-11T06:45:53.970Z,-1.17
2023-02-11T06:56:04.044Z,-1.07
2023-02-11T07:06:13.803Z,-1.09
2023-02-11T07:16:22.650Z,-1.04
2023-02-11T07:26:30.200Z,-0.86
2023-02-11T07:36:38.181Z,-0.39
2023-02-11T07:46:44.856Z,-0.01
2023-02-11T07:56:52.209Z,0.02
2023-02-11T08:06:59.400Z,0.10
2023-02-11T08:17:06.831Z,0.43
2023-02-11T08:27:13.970Z,0.78
2023-02-11T08:37:23.279Z,1.13
2023-02-11T08:47:30.340Z,1.37
2023-02-11T08:57:37.491Z,1.37
2023-02-11T09:07:45.265Z,1.66
2023-02-11T09:17:52.592Z,1.97
2023-02-11T09:28:00.154Z,2.13
2023-02-11T09:38:08.740Z,2.15
2023-02-11T09:48:14.712Z,2.14
2023-02-11T09:58:25.721Z,2.17
2023-02-11T10:08:36.269Z,2.32
2023-02-11T10:18:45.559Z,2.69
2023-02-11T10:28:58.050Z,2.83
2023-02-11T10:39:03.228Z,2.88
2023-02-11T10:49:10.667Z,2.84
2023-02-11T10:59:21.745Z,2.67
2023-02-11T11:09:29.098Z,2.70
2023-02-11T11:19:39.915Z,2.59
2023-02-11T11:29:47.591Z,2.35
2023-02-11T11:39:54.518Z,2.18
2023-02-11T11:50:21.620Z,2.13
2023-02-11T12:00:27.757Z,2.16
2023-02-11T12:11:01.050Z,2.18
2023-02-11T12:21:11.771Z,2.11
2023-02-11T12:31:29.353Z,2.00
2023-02-11T12:41:58.333Z,1.96
2023-02-11T12:52:12.925Z,1.98
2023-02-11T13:02:20.360Z,2.06
2023-02-11T13:12:45.936Z,2.16
2023-02-11T13:22:49.454Z,2.11
2023-02-11T13:33:20.193Z,2.06
2023-02-11T13:43:30.667Z,2.07
2023-02-11T13:53:45.612Z,2.14
2023-02-11T14:04:40.264Z,2.20
2023-02-11T14:15:02.877Z,2.24
2023-02-11T14:25:21.649Z,2.30
2023-02-11T14:35:28.545Z,2.34
2023-02-11T14:45:38.474Z,2.43
2023-02-11T14:55:48.929Z,2.49
2023-02-11T15:05:58.223Z,2.54
2023-02-11T15:16:06.772Z,2.56
2023-02-11T15:26:15.062Z,2.49
2023-02-11T15:36:25.570Z,2.50
2023-02-11T15:46:32.153Z,2.51
2023-02-11T15:56:43.635Z,2.54
2023-02-11T16:06:52.545Z,2.58
2023-02-11T16:17:00.054Z,2.60
2023-02-11T16:27:07.510Z,2.62
2023-02-11T16:37:15.038Z,2.65
2023-02-11T16:47:24.142Z,2.71
2023-02-11T16:57:35.728Z,2.72
2023-02-11T17:07:43.124Z,2.76
2023-02-11T17:17:50.599Z,2.82
2023-02-11T17:27:57.069Z,2.85
2023-02-11T17:38:04.557Z,2.90
2023-02-11T17:48:11.924Z,2.96
2023-02-11T17:58:19.141Z,2.99
2023-02-11T18:08:26.917Z,3.02
2023-02-11T18:18:34.627Z,3.04
2023-02-11T18:28:45.550Z,3.07
2023-02-11T18:38:54.497Z,3.09
2023-02-11T18:49:01.726Z,3.15
2023-02-11T18:59:09.071Z,3.21
2023-02-11T19:09:18.800Z,3.26
2023-02-11T19:19:25.455Z,3.32
2023-02-11T19:29:35.429Z,3.36
2023-02-11T19:39:43.455Z,3.39
2023-02-11T19:49:49.455Z,3.42
2023-02-11T19:59:57.157Z,3.46
2023-02-11T20:10:04.841Z,3.47
2023-02-11T20:20:13.974Z,3.50
2023-02-11T20:30:20.935Z,3.50
2023-02-11T20:40:28.006Z,3.53
2023-02-11T20:50:36.657Z,3.54
2023-02-11T21:00:43.664Z,3.57
2023-02-11T21:10:50.825Z,3.61
2023-02-11T21:20:56.964Z,3.62
2023-02-11T21:31:05.489Z,3.60
2023-02-11T21:41:12.774Z,3.62
2023-02-11T21:51:22.231Z,3.62
2023-02-11T22:01:31.521Z,3.61
2023-02-11T22:11:38.909Z,3.62
2023-02-11T22:21:46.121Z,3.62
2023-02-11T22:31:53.266Z,3.63
2023-02-11T22:41:59.970Z,3.64
2023-02-11T22:52:07.717Z,3.63
2023-02-11T23:02:14.819Z,3.63
2023-02-11T23:12:22.259Z,3.64
2023-02-11T23:22:29.868Z,3.65
2023-02-11T23:32:39.384Z,3.67
2023-02-11T23:42:45.799Z,3.66
2023-02-11T23:52:52.970Z,3.63
